createdAt,value
2022-09-16T00:01:13.231Z,100036.06
2022-09-16T00:03:41.491Z,100039.50
2022-09-16T00:06:20.367Z,100045.34
2022-09-16T00:08:48.623Z,100041.00
2022-09-16T00:11:17.929Z,100043.03
2022-09-16T00:13:46.675Z,100042.38
2022-09-16T00:16:20.558Z,100038.75
2022-09-16T00:18:49.253Z,100040.00
2022-09-16T00:21:18.455Z,100036.25
2022-09-16T00:23:46.329Z,100039.84
2022-09-16T00:26:14.321Z,100037.06
2022-09-16T00:28:42.200Z,100044.38
2022-09-16T00:31:10.082Z,100036.81
2022-09-16T00:33:37.884Z,100029.47
2022-09-16T00:36:08.925Z,100040.16
2022-09-16T00:38:38.377Z,100036.69
2022-09-16T00:41:07.325Z,100039.00
2022-09-16T00:43:51.978Z,100045.00
2022-09-16T00:46:27.532Z,100046.78
2022-09-16T00:48:55.687Z,100049.56
2022-09-16T00:51:25.336Z,100048.88
2022-09-16T00:54:02.080Z,100048.44
2022-09-16T00:56:35.433Z,100058.13
2022-09-16T00:59:10.890Z,100056.13
2022-09-16T01:01:42.482Z,100055.47
2022-09-16T01:04:18.253Z,100057.78
2022-09-16T01:06:46.876Z,100049.38
2022-09-16T01:09:17.730Z,100048.84
2022-09-16T01:11:45.475Z,100052.94
2022-09-16T01:14:32.929Z,100051.97
2022-09-16T01:17:10.534Z,100051.97
2022-09-16T01:20:06.896Z,100048.72
2022-09-16T01:23:02.820Z,100045.25
2022-09-16T01:25:56.658Z,100048.72
2022-09-16T01:29:05.452Z,100051.72
2022-09-16T01:31:44.131Z,100051.97
2022-09-16T01:34:26.167Z,100057.56
2022-09-16T01:37:05.153Z,100050.66
2022-09-16T01:39:45.798Z,100053.94
2022-09-16T01:42:31.114Z,100053.09
2022-09-16T01:45:07.302Z,100050.66
2022-09-16T01:47:45.983Z,100055.81
2022-09-16T01:50:23.853Z,100053.28
2022-09-16T01:53:09.102Z,100048.91
2022-09-16T01:55:42.672Z,100053.47
2022-09-16T01:58:23.782Z,100054.41
2022-09-16T02:01:01.588Z,100054.19
2022-09-16T02:03:35.958Z,100049.41
2022-09-16T02:06:09.664Z,100060.84
2022-09-16T02:08:44.696Z,100050.09
2022-09-16T02:11:17.285Z,100053.25
2022-09-16T02:13:50.481Z,100055.66
2022-09-16T02:16:27.180Z,100047.38
2022-09-16T02:19:02.179Z,100047.19
2022-09-16T02:21:34.368Z,100044.38
2022-09-16T02:24:09.795Z,100043.41
2022-09-16T02:26:43.480Z,100044.00
2022-09-16T02:29:20.104Z,100041.53
2022-09-16T02:31:53.612Z,100047.19
2022-09-16T02:34:31.262Z,100041.25
2022-09-16T02:37:07.932Z,100042.59
2022-09-16T02:39:41.708Z,100043.63
2022-09-16T02:42:09.613Z,100036.72
2022-09-16T02:44:37.762Z,100038.16
2022-09-16T02:47:17.066Z,100030.31
2022-09-16T02:49:56.940Z,100035.66
2022-09-16T02:52:37.356Z,100036.88
2022-09-16T02:55:16.710Z,100039.19
2022-09-16T02:57:44.520Z,100029.53
2022-09-16T03:00:13.026Z,100047.09
2022-09-16T03:02:40.898Z,100040.91
2022-09-16T03:05:10.559Z,100048.44
2022-09-16T03:07:41.929Z,100048.84
2022-09-16T03:10:13.194Z,100043.47
2022-09-16T03:12:55.288Z,100041.91
2022-09-16T03:15:45.171Z,100035.94
2022-09-16T03:18:36.127Z,100033.41
2022-09-16T03:21:20.696Z,100038.41
2022-09-16T03:24:02.943Z,100040.31
2022-09-16T03:26:46.697Z,100042.81
2022-09-16T03:29:26.296Z,100036.00
2022-09-16T03:32:04.527Z,100036.78
2022-09-16T03:34:40.981Z,100033.41
2022-09-16T03:37:19.674Z,100035.59
2022-09-16T03:39:53.598Z,100033.97
2022-09-16T03:42:23.333Z,100039.66
2022-09-16T03:44:51.429Z,100039.00
2022-09-16T03:47:19.393Z,100029.66
2022-09-16T03:49:47.270Z,100035.84
2022-09-16T03:52:18.672Z,100035.03
2022-09-16T03:54:46.549Z,100033.41
2022-09-16T03:57:14.310Z,100027.91
2022-09-16T03:59:42.253Z,100029.81
2022-09-16T04:02:10.048Z,100038.69
2022-09-16T04:04:37.809Z,100026.75
2022-09-16T04:07:05.901Z,100026.13
2022-09-16T04:09:37.241Z,100024.06
2022-09-16T04:12:07.598Z,100022.31
2022-09-16T04:14:35.764Z,100023.00
2022-09-16T04:17:04.431Z,100027.69
2022-09-16T04:19:34.226Z,100030.72
2022-09-16T04:22:02.050Z,100036.16
2022-09-16T04:24:30.044Z,100035.06
2022-09-16T04:26:59.256Z,100035.34
2022-09-16T04:29:27.813Z,100040.66
2022-09-16T04:31:55.855Z,100034.63
2022-09-16T04:34:23.670Z,100033.22
2022-09-16T04:36:51.527Z,100029.94
2022-09-16T04:39:19.286Z,100032.56
2022-09-16T04:41:47.140Z,100034.97
2022-09-16T04:44:16.405Z,100022.38
2022-09-16T04:46:44.185Z,100028.97
2022-09-16T04:49:13.382Z,100025.25
2022-09-16T04:51:41.515Z,100020.78
2022-09-16T04:54:09.519Z,100020.16
2022-09-16T04:56:37.423Z,100028.84
2022-09-16T04:59:07.040Z,100020.66
2022-09-16T05:01:39.889Z,100019.88
2022-09-16T05:04:10.074Z,100026.41
2022-09-16T05:06:40.486Z,100022.66
2022-09-16T05:09:10.957Z,100019.16
2022-09-16T05:11:41.642Z,100020.66
2022-09-16T05:14:18.124Z,100027.34
2022-09-16T05:16:47.688Z,100030.78
2022-09-16T05:19:16.113Z,100022.06
2022-09-16T05:21:44.043Z,100014.69
2022-09-16T05:24:15.037Z,100022.22
2022-09-16T05:26:44.422Z,100026.41
2022-09-16T05:29:15.607Z,100024.06
2022-09-16T05:31:47.258Z,100022.22
2022-09-16T05:34:19.399Z,100011.97
2022-09-16T05:36:54.201Z,100018.22
2022-09-16T05:39:24.844Z,100021.63
2022-09-16T05:41:56.747Z,100018.09
2022-09-16T05:44:25.636Z,100022.69
2022-09-16T05:46:54.178Z,100016.28
2022-09-16T05:49:23.813Z,100025.19
2022-09-16T05:51:52.905Z,100021.56
2022-09-16T05:54:23.750Z,100019.06
2022-09-16T05:56:51.934Z,100022.69
2022-09-16T05:59:20.038Z,100025.22
2022-09-16T06:01:47.886Z,100020.88
2022-09-16T06:04:16.953Z,100026.69
2022-09-16T06:06:47.703Z,100023.66
2022-09-16T06:09:18.374Z,100029.47
2022-09-16T06:11:48.539Z,100022.47
2022-09-16T06:14:18.215Z,100029.38
2022-09-16T06:16:47.115Z,100018.78
2022-09-16T06:19:17.693Z,100026.03
2022-09-16T06:21:47.909Z,100017.44
2022-09-16T06:24:18.044Z,100025.97
2022-09-16T06:26:47.783Z,100017.50
2022-09-16T06:29:16.995Z,100014.91
2022-09-16T06:31:44.841Z,100010.50
2022-09-16T06:34:18.353Z,100019.38
2022-09-16T06:36:48.198Z,100015.00
2022-09-16T06:39:17.883Z,100011.13
2022-09-16T06:41:45.993Z,100003.56
2022-09-16T06:44:14.113Z,100008.94
2022-09-16T06:46:42.153Z,100012.63
2022-09-16T06:49:11.359Z,100010.97
2022-09-16T06:51:39.479Z,100008.59
2022-09-16T06:54:09.629Z,100005.56
2022-09-16T06:56:39.556Z,100001.19
2022-09-16T06:59:08.642Z,100004.97
2022-09-16T07:01:36.805Z,100007.19
2022-09-16T07:04:08.259Z,100016.38
2022-09-16T07:07:07.405Z,100014.00
2022-09-16T07:09:27.185Z,100017.31
2022-09-16T07:11:57.036Z,100034.78
2022-09-16T07:14:24.907Z,100033.44
2022-09-16T07:16:53.264Z,100022.16
2022-09-16T07:19:21.478Z,100028.31
2022-09-16T07:21:49.291Z,100018.91
2022-09-16T07:24:17.207Z,100019.38
2022-09-16T07:26:47.175Z,100014.47
2022-09-16T07:29:20.450Z,100018.13
2022-09-16T07:31:48.236Z,100013.09
2022-09-16T07:34:16.017Z,100018.16
2022-09-16T07:36:46.282Z,100020.91
2022-09-16T07:39:17.008Z,100019.69
2022-09-16T07:41:49.439Z,100016.81
2022-09-16T07:44:23.431Z,100014.97
2022-09-16T07:46:51.664Z,100017.31
2022-09-16T07:49:20.031Z,100011.97
2022-09-16T07:51:48.407Z,100022.69
2022-09-16T07:54:19.847Z,100028.50
2022-09-16T07:56:48.981Z,100025.00
2022-09-16T07:59:20.461Z,100024.59
2022-09-16T08:01:50.445Z,100037.53
2022-09-16T08:04:20.024Z,100029.84
2022-09-16T08:06:48.885Z,100028.97
2022-09-16T08:12:10.683Z,100037.34
2022-09-16T08:14:38.513Z,100037.22
2022-09-16T08:17:07.490Z,100030.47
2022-09-16T08:19:35.327Z,100031.97
2022-09-16T08:22:03.152Z,100033.09
2022-09-16T08:24:31.048Z,100035.97
2022-09-16T08:26:58.805Z,100042.78
2022-09-16T08:29:28.117Z,100042.03
2022-09-16T08:31:56.241Z,100047.75
2022-09-16T08:34:24.239Z,100033.38
2022-09-16T08:36:52.294Z,100036.22
2022-09-16T08:39:21.582Z,100034.63
2022-09-16T08:42:23.276Z,100035.94
2022-09-16T08:45:04.406Z,100040.63
2022-09-16T08:47:50.915Z,100035.00
2022-09-16T08:50:29.911Z,100048.78
2022-09-16T08:53:00.841Z,100030.66
2022-09-16T08:55:35.410Z,100033.72
2022-09-16T08:58:08.236Z,100025.09
2022-09-16T09:00:40.354Z,100029.28
2022-09-16T09:03:19.777Z,100030.47
2022-09-16T09:05:53.974Z,100027.44
2022-09-16T09:08:41.031Z,100023.78
2022-09-16T09:11:19.307Z,100028.41
2022-09-16T09:14:06.974Z,100028.25
2022-09-16T09:16:48.932Z,100011.59
2022-09-16T09:19:45.162Z,100029.13
2022-09-16T09:22:31.190Z,100025.41
2022-09-16T09:25:27.706Z,100011.34
2022-09-16T09:28:13.498Z,100004.22
2022-09-16T09:30:53.586Z,100011.59
2022-09-16T09:33:46.793Z,100015.63
2022-09-16T09:36:40.254Z,100000.19
2022-09-16T09:39:39.786Z,100002.59
2022-09-16T09:42:18.544Z,99996.31
2022-09-16T09:45:01.378Z,99991.28
2022-09-16T09:47:37.887Z,99997.47
2022-09-16T09:50:19.833Z,99994.53
2022-09-16T09:52:58.716Z,99994.63
2022-09-16T09:55:33.390Z,99995.13
2022-09-16T09:58:18.329Z,99985.47
2022-09-16T10:00:46.560Z,99984.63
2022-09-16T10:03:19.098Z,99979.94
2022-09-16T10:05:49.133Z,99983.84
2022-09-16T10:08:26.246Z,99980.22
2022-09-16T10:10:57.161Z,99980.88
2022-09-16T10:13:26.880Z,99972.00
2022-09-16T10:16:11.183Z,99976.53
2022-09-16T10:18:39.631Z,99969.75
2022-09-16T10:21:13.869Z,99970.88
2022-09-16T10:23:42.529Z,99989.16
2022-09-16T10:26:22.308Z,99985.50
2022-09-16T10:29:00.373Z,99973.78
2022-09-16T10:31:36.269Z,99973.69
2022-09-16T10:34:14.009Z,99973.94
2022-09-16T10:36:43.343Z,99966.34
2022-09-16T10:39:24.729Z,99965.38
2022-09-16T10:41:53.013Z,99979.22
2022-09-16T10:44:27.032Z,99971.41
2022-09-16T10:46:58.822Z,99974.56
2022-09-16T10:49:39.116Z,99968.47
2022-09-16T10:52:18.157Z,99967.41
2022-09-16T10:54:46.745Z,99959.47
2022-09-16T10:57:25.581Z,99962.09
2022-09-16T11:00:12.005Z,99954.97
2022-09-16T11:03:08.143Z,99948.69
2022-09-16T11:05:48.428Z,99951.22
2022-09-16T11:08:34.733Z,99961.97
2022-09-16T11:11:14.233Z,99968.41
2022-09-16T11:13:55.679Z,99976.75
2022-09-16T11:16:55.348Z,99970.38
2022-09-16T11:19:34.470Z,99975.41
2022-09-16T11:22:25.166Z,99963.13
2022-09-16T11:25:30.434Z,99966.13
2022-09-16T11:28:19.324Z,99977.38
2022-09-16T11:31:01.933Z,99952.72
2022-09-16T11:33:41.444Z,99961.59
2022-09-16T11:36:30.904Z,99960.09
2022-09-16T11:39:19.806Z,99951.63
2022-09-16T11:42:01.866Z,99945.44
2022-09-16T11:44:42.991Z,99938.63
2022-09-16T11:47:40.848Z,99938.19
2022-09-16T11:50:37.579Z,99940.50
2022-09-16T11:53:54.048Z,99944.38
2022-09-16T11:56:37.158Z,99941.88
2022-09-16T11:59:17.219Z,99951.72
2022-09-16T12:01:52.483Z,99944.25
2022-09-16T12:04:33.829Z,99944.56
2022-09-16T12:07:14.064Z,99928.38
2022-09-16T12:09:51.201Z,99932.88
2022-09-16T12:12:23.885Z,99917.66
2022-09-16T12:15:04.816Z,99914.69
2022-09-16T12:17:37.945Z,99910.91
2022-09-16T12:20:16.768Z,99912.44
2022-09-16T12:22:51.114Z,99899.06
2022-09-16T12:25:27.162Z,99894.28
2022-09-16T12:28:03.546Z,99889.47
2022-09-16T12:30:39.670Z,99900.78
2022-09-16T12:33:17.283Z,99905.81
2022-09-16T12:35:58.354Z,99899.13
2022-09-16T12:38:26.645Z,99906.72
2022-09-16T12:41:22.246Z,99895.28
2022-09-16T12:44:33.577Z,99892.09
2022-09-16T12:47:54.092Z,99891.78
2022-09-16T12:50:48.314Z,99893.31
2022-09-16T12:53:49.707Z,99888.97
2022-09-16T12:56:44.274Z,99881.59
2022-09-16T12:59:42.700Z,99884.50
2022-09-16T13:02:18.915Z,99877.28
2022-09-16T13:04:50.961Z,99881.84
2022-09-16T13:07:26.874Z,99874.28
2022-09-16T13:10:03.862Z,99877.75
2022-09-16T13:12:44.025Z,99868.63
2022-09-16T13:15:28.277Z,99877.16
2022-09-16T13:18:09.330Z,99868.06
2022-09-16T13:20:42.393Z,99865.03
2022-09-16T13:23:20.079Z,99863.13
2022-09-16T13:25:59.099Z,99858.78
2022-09-16T13:28:38.682Z,99839.16
2022-09-16T13:31:29.326Z,99837.03
2022-09-16T13:34:17.536Z,99854.00
2022-09-16T13:36:45.518Z,99860.31
2022-09-16T13:39:16.339Z,99855.25
2022-09-16T13:41:47.233Z,99857.38
2022-09-16T13:44:40.166Z,99848.66
2022-09-16T13:47:17.277Z,99844.63
2022-09-16T13:49:53.308Z,99837.53
2022-09-16T13:52:30.820Z,99842.31
2022-09-16T13:55:11.325Z,99839.16
2022-09-16T13:57:58.752Z,99835.59
2022-09-16T14:00:34.006Z,99841.41
2022-09-16T14:03:34.919Z,99831.31
2022-09-16T14:06:23.567Z,99841.59
2022-09-16T14:09:03.246Z,99829.06
2022-09-16T14:11:42.482Z,99822.53
2022-09-16T14:14:36.168Z,99823.91
2022-09-16T14:17:15.591Z,99832.84
2022-09-16T14:19:46.754Z,99819.41
2022-09-16T14:22:21.718Z,99820.97
2022-09-16T14:24:56.458Z,99827.03
2022-09-16T14:27:39.406Z,99824.34
2022-09-16T14:30:16.880Z,99814.44
2022-09-16T14:32:46.873Z,99819.38
2022-09-16T14:35:21.150Z,99813.06
2022-09-16T14:37:58.460Z,99820.31
2022-09-16T14:40:29.237Z,99812.88
2022-09-16T14:43:03.173Z,99808.88
2022-09-16T14:45:33.783Z,99814.50
2022-09-16T14:48:08.974Z,99812.03
2022-09-16T14:50:45.120Z,99818.94
2022-09-16T14:53:35.355Z,99819.56
2022-09-16T14:56:04.462Z,99804.00
2022-09-16T14:58:34.906Z,99816.16
2022-09-16T15:01:12.450Z,99817.41
2022-09-16T15:03:49.885Z,99812.84
2022-09-16T15:06:23.753Z,99800.28
2022-09-16T15:08:59.416Z,99806.28
2022-09-16T15:11:47.697Z,99803.13
2022-09-16T15:14:16.900Z,99801.50
2022-09-16T15:16:49.845Z,99797.66
2022-09-16T15:19:22.845Z,99789.13
2022-09-16T15:21:52.075Z,99795.38
2022-09-16T15:24:28.279Z,99798.91
2022-09-16T15:26:58.254Z,99793.13
2022-09-16T15:29:33.860Z,99795.63
2022-09-16T15:32:19.358Z,99793.84
2022-09-16T15:34:47.444Z,99787.47
2022-09-16T15:37:33.688Z,99793.63
2022-09-16T15:40:23.892Z,99794.97
2022-09-16T15:43:06.399Z,99795.00
2022-09-16T15:45:34.718Z,99788.03
2022-09-16T15:48:08.688Z,99796.44
2022-09-16T15:50:44.870Z,99792.72
2022-09-16T15:53:19.333Z,99805.25
2022-09-16T15:56:01.385Z,99803.97
2022-09-16T15:58:40.882Z,99794.69
2022-09-16T16:01:16.758Z,99788.91
2022-09-16T16:03:55.432Z,99792.66
2022-09-16T16:06:52.357Z,99779.72
2022-09-16T16:09:41.400Z,99795.66
2022-09-16T16:12:13.911Z,99780.19
2022-09-16T16:14:42.935Z,99777.16
2022-09-16T16:17:15.246Z,99781.63
2022-09-16T16:19:43.796Z,99787.34
2022-09-16T16:22:14.020Z,99788.41
2022-09-16T16:24:42.087Z,99778.31
2022-09-16T16:27:10.580Z,99776.28
2022-09-16T16:29:39.273Z,99778.88
2022-09-16T16:32:10.621Z,99784.78
2022-09-16T16:34:40.792Z,99777.78
2022-09-16T16:37:16.153Z,99784.47
2022-09-16T16:39:53.226Z,99772.88
2022-09-16T16:42:23.169Z,99770.59
2022-09-16T16:44:51.580Z,99787.13
2022-09-16T16:47:19.572Z,99777.63
2022-09-16T16:49:51.400Z,99786.59
2022-09-16T16:52:19.486Z,99799.75
2022-09-16T16:54:54.249Z,99792.38
2022-09-16T16:57:22.133Z,99788.22
2022-09-16T16:59:49.956Z,99803.81
2022-09-16T17:02:17.745Z,99797.44
2022-09-16T17:04:45.568Z,99797.56
2022-09-16T17:07:28.919Z,99795.66
2022-09-16T17:10:13.020Z,99800.03
2022-09-16T17:12:40.924Z,99792.03
2022-09-16T17:15:09.854Z,99795.81
2022-09-16T17:17:37.840Z,99802.59
2022-09-16T17:20:06.914Z,99801.56
2022-09-16T17:22:34.817Z,99792.47
2022-09-16T17:25:02.590Z,99796.94
2022-09-16T17:27:31.706Z,99801.00
2022-09-16T17:30:01.077Z,99796.72
2022-09-16T17:32:28.952Z,99797.03
2022-09-16T17:34:57.072Z,99799.63
2022-09-16T17:37:24.867Z,99795.94
2022-09-16T17:39:52.697Z,99800.53
2022-09-16T17:42:20.939Z,99794.34
2022-09-16T17:44:50.055Z,99792.91
2022-09-16T17:47:17.805Z,99807.09
2022-09-16T17:49:45.621Z,99802.25
2022-09-16T17:52:13.415Z,99808.13
2022-09-16T17:54:42.050Z,99802.72
2022-09-16T17:57:09.845Z,99800.28
2022-09-16T17:59:37.631Z,99800.38
2022-09-16T18:02:07.601Z,99796.34
2022-09-16T18:04:35.462Z,99792.47
2022-09-16T18:07:03.451Z,99801.72
2022-09-16T18:09:32.441Z,99795.25
2022-09-16T18:12:00.227Z,99791.31
2022-09-16T18:14:28.312Z,99799.97
2022-09-16T18:16:56.188Z,99803.25
2022-09-16T18:19:25.413Z,99795.88
2022-09-16T18:21:53.352Z,99800.19
2022-09-16T18:24:21.276Z,99798.50
2022-09-16T18:26:49.481Z,99795.91
2022-09-16T18:29:17.571Z,99796.50
2022-09-16T18:31:48.763Z,99791.94
2022-09-16T18:34:18.222Z,99789.97
2022-09-16T18:36:47.402Z,99805.63
2022-09-16T18:39:18.296Z,99795.00
2022-09-16T18:41:47.182Z,99795.34
2022-09-16T18:44:19.535Z,99799.53
2022-09-16T18:46:48.133Z,99801.09
2022-09-16T18:49:18.631Z,99794.06
2022-09-16T18:51:52.138Z,99798.34
2022-09-16T18:54:24.844Z,99805.53
2022-09-16T18:56:55.823Z,99800.47
2022-09-16T18:59:28.679Z,99818.22
2022-09-16T19:01:59.389Z,99810.63
2022-09-16T19:04:31.460Z,99805.84
2022-09-16T19:07:07.953Z,99802.25
2022-09-16T19:09:39.716Z,99807.09
2022-09-16T19:12:09.513Z,99805.94
2022-09-16T19:14:44.651Z,99798.16
2022-09-16T19:17:15.757Z,99801.09
2022-09-16T19:19:43.653Z,99800.22
2022-09-16T19:22:13.175Z,99799.72
2022-09-16T19:24:42.143Z,99799.84
2022-09-16T19:27:10.038Z,99795.06
2022-09-16T19:29:37.839Z,99818.63
2022-09-16T19:32:06.363Z,99815.53
2022-09-16T19:34:34.275Z,99818.59
2022-09-16T19:37:02.223Z,99819.06
2022-09-16T19:39:31.822Z,99819.19
2022-09-16T19:42:03.457Z,99807.63
2022-09-16T19:44:31.905Z,99817.25
2022-09-16T19:46:59.793Z,99810.66
2022-09-16T19:49:27.592Z,99815.22
2022-09-16T19:51:55.452Z,99800.16
2022-09-16T19:54:24.531Z,99793.22
2022-09-16T19:56:56.561Z,99791.78
2022-09-16T19:59:24.476Z,99789.91
2022-09-16T20:01:53.176Z,99787.91
2022-09-16T20:04:21.421Z,99781.56
2022-09-16T20:06:52.533Z,99777.72
2022-09-16T20:09:20.607Z,99761.94
2022-09-16T20:11:49.826Z,99754.63
2022-09-16T20:14:22.223Z,99750.94
2022-09-16T20:16:51.925Z,99755.72
2022-09-16T20:19:21.270Z,99742.81
2022-09-16T20:21:49.834Z,99734.88
2022-09-16T20:24:20.434Z,99742.34
2022-09-16T20:26:52.622Z,99745.06
2022-09-16T20:29:23.023Z,99738.78
2022-09-16T20:31:54.031Z,99739.25
2022-09-16T20:34:24.219Z,99738.84
2022-09-16T20:36:52.749Z,99737.06
2022-09-16T20:39:23.093Z,99740.56
2022-09-16T20:41:52.768Z,99733.28
2022-09-16T20:44:22.068Z,99729.78
2022-09-16T20:46:50.136Z,99723.06
2022-09-16T20:49:22.877Z,99717.66
2022-09-16T20:51:50.839Z,99727.34
2022-09-16T20:54:18.899Z,99716.25
2022-09-16T20:56:49.343Z,99723.69
2022-09-16T20:59:22.528Z,99718.53
2022-09-16T21:01:52.001Z,99727.50
2022-09-16T21:04:21.745Z,99728.34
2022-09-16T21:06:49.845Z,99716.97
2022-09-16T21:09:19.030Z,99731.66
2022-09-16T21:11:47.421Z,99724.50
2022-09-16T21:14:17.599Z,99723.31
2022-09-16T21:16:47.998Z,99721.44
2022-09-16T21:19:18.166Z,99721.00
2022-09-16T21:21:47.884Z,99723.78
2022-09-16T21:24:17.022Z,99716.53
2022-09-16T21:26:46.697Z,99716.72
2022-09-16T21:29:17.520Z,99724.75
2022-09-16T21:31:45.999Z,99724.97
2022-09-16T21:34:18.697Z,99726.75
2022-09-16T21:36:46.817Z,99726.50
2022-09-16T21:39:18.861Z,99741.59
2022-09-16T21:41:48.984Z,99734.34
2022-09-16T21:44:19.919Z,99727.22
2022-09-16T21:46:51.693Z,99728.81
2022-09-16T21:49:25.236Z,99742.03
2022-09-16T21:51:56.320Z,99741.44
2022-09-16T21:54:25.715Z,99741.53
2022-09-16T21:56:56.691Z,99749.16
2022-09-16T21:59:24.772Z,99736.72
2022-09-16T22:02:01.382Z,99747.84
2022-09-16T22:04:32.728Z,99736.09
2022-09-16T22:07:00.528Z,99744.31
2022-09-16T22:09:28.490Z,99751.19
2022-09-16T22:11:56.625Z,99747.44
2022-09-16T22:14:24.418Z,99747.47
2022-09-16T22:16:52.248Z,99748.66
2022-09-16T22:19:20.890Z,99753.41
2022-09-16T22:21:52.202Z,99758.69
2022-09-16T22:24:21.532Z,99755.19
2022-09-16T22:26:51.348Z,99758.47
2022-09-16T22:29:19.360Z,99755.53
2022-09-16T22:31:47.419Z,99774.91
2022-09-16T22:34:15.755Z,99775.94
2022-09-16T22:36:43.605Z,99770.03
2022-09-16T22:39:16.607Z,99769.69
2022-09-16T22:41:45.029Z,99772.09
2022-09-16T22:44:13.525Z,99767.34
2022-09-16T22:46:44.592Z,99764.16
2022-09-16T22:49:13.326Z,99772.19
2022-09-16T22:51:41.541Z,99778.28
2022-09-16T22:54:11.853Z,99783.22
2022-09-16T22:56:41.164Z,99783.06
2022-09-16T22:59:16.586Z,99771.63
2022-09-16T23:01:44.505Z,99774.72
2022-09-16T23:04:12.470Z,99783.16
2022-09-16T23:06:41.332Z,99792.59
2022-09-16T23:09:13.237Z,99786.88
2022-09-16T23:11:42.345Z,99795.56
2022-09-16T23:14:14.578Z,99793.75
2022-09-16T23:16:42.568Z,99796.78
2022-09-16T23:19:13.119Z,99792.06
2022-09-16T23:21:42.114Z,99787.47
2022-09-16T23:24:17.359Z,99801.00
2022-09-16T23:26:49.045Z,99793.53
2022-09-16T23:29:19.074Z,99797.84
2022-09-16T23:31:47.114Z,99793.03
2022-09-16T23:34:20.832Z,99787.69
2022-09-16T23:36:49.620Z,99789.94
2022-09-16T23:39:18.466Z,99792.25
2022-09-16T23:41:48.076Z,99795.63
2022-09-16T23:44:17.007Z,99795.38
2022-09-16T23:46:45.761Z,99799.78
2022-09-16T23:49:16.874Z,99794.19
2022-09-16T23:51:44.700Z,99802.78
2022-09-16T23:54:12.534Z,99803.44
2022-09-16T23:56:40.340Z,99795.06
2022-09-16T23:59:09.456Z,99808.25
